sensor_id;sensor_type;location;lat;lon;timestamp;P1;durP1;ratioP1;P2;durP2;ratioP2
18265;SDS011;9259;48.194;16.322;2022-12-18T00:01:23;17.47;;;6.90;;
18265;SDS011;9259;48.194;16.322;2022-12-18T00:03:54;16.67;;;7.57;;
18265;SDS011;9259;48.194;16.322;2022-12-18T00:06:23;19.87;;;8.07;;
18265;SDS011;9259;48.194;16.322;2022-12-18T00:08:53;21.00;;;7.40;;
18265;SDS011;9259;48.194;16.322;2022-12-18T00:11:23;17.77;;;7.80;;
18265;SDS011;9259;48.194;16.322;2022-12-18T00:13:53;17.10;;;8.13;;
18265;SDS011;9259;48.194;16.322;2022-12-18T00:16:23;18.77;;;8.30;;
18265;SDS011;9259;48.194;16.322;2022-12-18T00:18:54;16.97;;;7.90;;
18265;SDS011;9259;48.194;16.322;2022-12-18T00:21:23;18.60;;;8.70;;
18265;SDS011;9259;48.194;16.322;2022-12-18T00:23:51;16.67;;;7.67;;
18265;SDS011;9259;48.194;16.322;2022-12-18T00:26:20;18.20;;;7.77;;
18265;SDS011;9259;48.194;16.322;2022-12-18T00:28:50;18.27;;;7.73;;
18265;SDS011;9259;48.194;16.322;2022-12-18T00:31:19;17.63;;;8.13;;
18265;SDS011;9259;48.194;16.322;2022-12-18T00:33:49;19.63;;;8.30;;
18265;SDS011;9259;48.194;16.322;2022-12-18T00:36:20;17.50;;;7.80;;
18265;SDS011;9259;48.194;16.322;2022-12-18T00:38:49;15.03;;;7.30;;
18265;SDS011;9259;48.194;16.322;2022-12-18T00:41:17;16.47;;;7.67;;
18265;SDS011;9259;48.194;16.322;2022-12-18T00:44:00;13.23;;;7.00;;
18265;SDS011;9259;48.194;16.322;2022-12-18T00:46:28;15.57;;;7.20;;
18265;SDS011;9259;48.194;16.322;2022-12-18T00:48:56;17.43;;;7.30;;
18265;SDS011;9259;48.194;16.322;2022-12-18T00:51:26;15.97;;;7.33;;
18265;SDS011;9259;48.194;16.322;2022-12-18T00:53:54;17.87;;;7.70;;
18265;SDS011;9259;48.194;16.322;2022-12-18T00:56:23;13.13;;;6.47;;
18265;SDS011;9259;48.194;16.322;2022-12-18T00:58:51;16.23;;;7.07;;
18265;SDS011;9259;48.194;16.322;2022-12-18T01:01:19;15.70;;;6.57;;
18265;SDS011;9259;48.194;16.322;2022-12-18T01:03:47;15.40;;;6.80;;
18265;SDS011;9259;48.194;16.322;2022-12-18T01:06:15;16.50;;;6.63;;
18265;SDS011;9259;48.194;16.322;2022-12-18T01:08:45;14.33;;;6.73;;
18265;SDS011;9259;48.194;16.322;2022-12-18T01:11:14;13.87;;;6.43;;
18265;SDS011;9259;48.194;16.322;2022-12-18T01:13:43;13.33;;;6.87;;
18265;SDS011;9259;48.194;16.322;2022-12-18T01:16:12;15.17;;;6.93;;
18265;SDS011;9259;48.194;16.322;2022-12-18T01:18:41;15.80;;;6.97;;
18265;SDS011;9259;48.194;16.322;2022-12-18T01:21:10;21.17;;;7.40;;
18265;SDS011;9259;48.194;16.322;2022-12-18T01:23:41;20.40;;;8.03;;
18265;SDS011;9259;48.194;16.322;2022-12-18T01:26:11;17.07;;;8.17;;
18265;SDS011;9259;48.194;16.322;2022-12-18T01:28:41;19.43;;;7.47;;
18265;SDS011;9259;48.194;16.322;2022-12-18T01:31:10;19.70;;;8.23;;
18265;SDS011;9259;48.194;16.322;2022-12-18T01:33:39;19.50;;;8.43;;
18265;SDS011;9259;48.194;16.322;2022-12-18T01:36:07;20.17;;;9.47;;
18265;SDS011;9259;48.194;16.322;2022-12-18T01:38:41;24.03;;;9.60;;
18265;SDS011;9259;48.194;16.322;2022-12-18T01:41:10;21.97;;;9.97;;
18265;SDS011;9259;48.194;16.322;2022-12-18T01:43:47;25.37;;;10.00;;
18265;SDS011;9259;48.194;16.322;2022-12-18T01:46:17;24.17;;;9.60;;
18265;SDS011;9259;48.194;16.322;2022-12-18T01:48:47;22.93;;;10.50;;
18265;SDS011;9259;48.194;16.322;2022-12-18T01:51:17;21.67;;;10.63;;
18265;SDS011;9259;48.194;16.322;2022-12-18T01:53:46;26.13;;;10.90;;
18265;SDS011;9259;48.194;16.322;2022-12-18T01:56:16;33.33;;;11.40;;
18265;SDS011;9259;48.194;16.322;2022-12-18T01:58:48;29.27;;;11.33;;
18265;SDS011;9259;48.194;16.322;2022-12-18T02:01:20;29.03;;;11.70;;
18265;SDS011;9259;48.194;16.322;2022-12-18T02:03:50;31.23;;;12.40;;
18265;SDS011;9259;48.194;16.322;2022-12-18T02:06:19;30.30;;;12.40;;
18265;SDS011;9259;48.194;16.322;2022-12-18T02:08:54;30.03;;;13.07;;
18265;SDS011;9259;48.194;16.322;2022-12-18T02:11:37;28.80;;;11.40;;
18265;SDS011;9259;48.194;16.322;2022-12-18T02:14:13;33.43;;;12.80;;
18265;SDS011;9259;48.194;16.322;2022-12-18T02:16:46;33.27;;;12.57;;
18265;SDS011;9259;48.194;16.322;2022-12-18T02:19:37;32.77;;;13.10;;
18265;SDS011;9259;48.194;16.322;2022-12-18T02:22:15;33.93;;;12.47;;
18265;SDS011;9259;48.194;16.322;2022-12-18T02:24:54;37.80;;;13.50;;
18265;SDS011;9259;48.194;16.322;2022-12-18T02:27:34;37.43;;;14.27;;
18265;SDS011;9259;48.194;16.322;2022-12-18T02:30:03;35.63;;;14.40;;
18265;SDS011;9259;48.194;16.322;2022-12-18T02:32:34;31.73;;;13.33;;
18265;SDS011;9259;48.194;16.322;2022-12-18T02:35:05;38.20;;;13.80;;
18265;SDS011;9259;48.194;16.322;2022-12-18T02:37:36;33.33;;;14.13;;
18265;SDS011;9259;48.194;16.322;2022-12-18T02:40:07;30.00;;;13.93;;
18265;SDS011;9259;48.194;16.322;2022-12-18T02:42:37;36.37;;;13.77;;
18265;SDS011;9259;48.194;16.322;2022-12-18T02:45:06;37.37;;;13.50;;
18265;SDS011;9259;48.194;16.322;2022-12-18T02:47:36;39.77;;;13.77;;
18265;SDS011;9259;48.194;16.322;2022-12-18T02:50:13;33.90;;;14.00;;
18265;SDS011;9259;48.194;16.322;2022-12-18T02:52:49;34.47;;;13.67;;
18265;SDS011;9259;48.194;16.322;2022-12-18T02:55:25;34.83;;;14.03;;
18265;SDS011;9259;48.194;16.322;2022-12-18T02:58:03;35.53;;;14.43;;
18265;SDS011;9259;48.194;16.322;2022-12-18T03:00:36;37.93;;;13.60;;
18265;SDS011;9259;48.194;16.322;2022-12-18T03:03:07;35.13;;;14.17;;
18265;SDS011;9259;48.194;16.322;2022-12-18T03:05:40;36.60;;;14.00;;
18265;SDS011;9259;48.194;16.322;2022-12-18T03:08:12;39.77;;;14.57;;
18265;SDS011;9259;48.194;16.322;2022-12-18T03:10:42;35.30;;;13.57;;
18265;SDS011;9259;48.194;16.322;2022-12-18T03:13:18;33.40;;;13.77;;
18265;SDS011;9259;48.194;16.322;2022-12-18T03:15:50;31.63;;;13.70;;
18265;SDS011;9259;48.194;16.322;2022-12-18T03:18:21;33.30;;;13.40;;
18265;SDS011;9259;48.194;16.322;2022-12-18T03:20:52;34.23;;;13.60;;
18265;SDS011;9259;48.194;16.322;2022-12-18T03:23:24;33.23;;;13.67;;
18265;SDS011;9259;48.194;16.322;2022-12-18T03:25:56;34.70;;;14.57;;
18265;SDS011;9259;48.194;16.322;2022-12-18T03:28:27;34.20;;;13.90;;
18265;SDS011;9259;48.194;16.322;2022-12-18T03:30:57;34.40;;;13.87;;
18265;SDS011;9259;48.194;16.322;2022-12-18T03:33:34;40.07;;;13.03;;
18265;SDS011;9259;48.194;16.322;2022-12-18T03:36:06;36.23;;;13.57;;
18265;SDS011;9259;48.194;16.322;2022-12-18T03:38:34;31.93;;;13.07;;
18265;SDS011;9259;48.194;16.322;2022-12-18T03:41:04;37.50;;;14.80;;
18265;SDS011;9259;48.194;16.322;2022-12-18T03:43:42;36.03;;;13.43;;
18265;SDS011;9259;48.194;16.322;2022-12-18T03:46:17;35.30;;;14.17;;
18265;SDS011;9259;48.194;16.322;2022-12-18T03:48:52;37.40;;;14.63;;
18265;SDS011;9259;48.194;16.322;2022-12-18T03:51:26;35.13;;;13.73;;
18265;SDS011;9259;48.194;16.322;2022-12-18T03:53:58;36.27;;;14.77;;
18265;SDS011;9259;48.194;16.322;2022-12-18T03:56:29;37.70;;;14.87;;
18265;SDS011;9259;48.194;16.322;2022-12-18T03:59:00;36.93;;;14.97;;
18265;SDS011;9259;48.194;16.322;2022-12-18T04:01:30;38.60;;;15.27;;
18265;SDS011;9259;48.194;16.322;2022-12-18T04:04:01;37.43;;;14.50;;
18265;SDS011;9259;48.194;16.322;2022-12-18T04:06:30;47.63;;;16.50;;
18265;SDS011;9259;48.194;16.322;2022-12-18T04:08:59;40.20;;;15.47;;
18265;SDS011;9259;48.194;16.322;2022-12-18T04:11:27;43.40;;;15.53;;
18265;SDS011;9259;48.194;16.322;2022-12-18T04:13:56;37.77;;;15.00;;
18265;SDS011;9259;48.194;16.322;2022-12-18T04:16:26;37.40;;;15.10;;
18265;SDS011;9259;48.194;16.322;2022-12-18T04:18:54;41.33;;;15.43;;
18265;SDS011;9259;48.194;16.322;2022-12-18T04:21:22;40.33;;;15.93;;
18265;SDS011;9259;48.194;16.322;2022-12-18T04:23:51;41.97;;;15.60;;
18265;SDS011;9259;48.194;16.322;2022-12-18T04:26:19;42.37;;;16.13;;
18265;SDS011;9259;48.194;16.322;2022-12-18T04:28:47;43.53;;;15.93;;
18265;SDS011;9259;48.194;16.322;2022-12-18T04:31:15;42.07;;;15.97;;
18265;SDS011;9259;48.194;16.322;2022-12-18T04:33:44;37.33;;;14.33;;
18265;SDS011;9259;48.194;16.322;2022-12-18T04:36:12;43.50;;;15.73;;
18265;SDS011;9259;48.194;16.322;2022-12-18T04:38:40;43.00;;;16.43;;
18265;SDS011;9259;48.194;16.322;2022-12-18T04:41:08;38.80;;;15.50;;
18265;SDS011;9259;48.194;16.322;2022-12-18T04:43:36;39.67;;;14.83;;
18265;SDS011;9259;48.194;16.322;2022-12-18T04:46:05;38.70;;;14.77;;
18265;SDS011;9259;48.194;16.322;2022-12-18T04:48:36;34.00;;;13.50;;
18265;SDS011;9259;48.194;16.322;2022-12-18T04:51:06;32.07;;;12.40;;
18265;SDS011;9259;48.194;16.322;2022-12-18T04:53:34;29.70;;;12.47;;
18265;SDS011;9259;48.194;16.322;2022-12-18T04:56:03;32.30;;;11.23;;
18265;SDS011;9259;48.194;16.322;2022-12-18T04:58:32;32.43;;;12.77;;
18265;SDS011;9259;48.194;16.322;2022-12-18T05:01:01;27.33;;;11.10;;
18265;SDS011;9259;48.194;16.322;2022-12-18T05:03:29;28.93;;;11.00;;
18265;SDS011;9259;48.194;16.322;2022-12-18T05:05:57;28.87;;;11.67;;
18265;SDS011;9259;48.194;16.322;2022-12-18T05:08:27;35.60;;;12.90;;
18265;SDS011;9259;48.194;16.322;2022-12-18T05:10:58;32.50;;;12.67;;
18265;SDS011;9259;48.194;16.322;2022-12-18T05:13:27;33.57;;;12.67;;
18265;SDS011;9259;48.194;16.322;2022-12-18T05:15:55;40.13;;;13.80;;
18265;SDS011;9259;48.194;16.322;2022-12-18T05:18:24;35.47;;;14.60;;
18265;SDS011;9259;48.194;16.322;2022-12-18T05:20:52;37.63;;;14.30;;
18265;SDS011;9259;48.194;16.322;2022-12-18T05:23:21;35.07;;;13.57;;
18265;SDS011;9259;48.194;16.322;2022-12-18T05:25:52;36.80;;;15.40;;
18265;SDS011;9259;48.194;16.322;2022-12-18T05:28:20;39.73;;;14.30;;
18265;SDS011;9259;48.194;16.322;2022-12-18T05:30:49;38.00;;;14.20;;
18265;SDS011;9259;48.194;16.322;2022-12-18T05:33:17;36.50;;;14.10;;
18265;SDS011;9259;48.194;16.322;2022-12-18T05:35:50;32.67;;;13.57;;
18265;SDS011;9259;48.194;16.322;2022-12-18T05:38:18;33.97;;;12.93;;
18265;SDS011;9259;48.194;16.322;2022-12-18T05:40:47;35.50;;;13.30;;
18265;SDS011;9259;48.194;16.322;2022-12-18T05:43:17;33.97;;;13.70;;
18265;SDS011;9259;48.194;16.322;2022-12-18T05:45:47;35.27;;;13.80;;
18265;SDS011;9259;48.194;16.322;2022-12-18T05:48:15;29.60;;;11.97;;
18265;SDS011;9259;48.194;16.322;2022-12-18T05:50:44;34.37;;;13.50;;
18265;SDS011;9259;48.194;16.322;2022-12-18T05:53:14;37.10;;;13.53;;
18265;SDS011;9259;48.194;16.322;2022-12-18T05:55:43;36.70;;;13.47;;
18265;SDS011;9259;48.194;16.322;2022-12-18T05:58:12;38.73;;;13.57;;
18265;SDS011;9259;48.194;16.322;2022-12-18T06:00:42;32.57;;;13.53;;
18265;SDS011;9259;48.194;16.322;2022-12-18T06:03:12;31.83;;;12.97;;
18265;SDS011;9259;48.194;16.322;2022-12-18T06:05:41;38.60;;;13.03;;
18265;SDS011;9259;48.194;16.322;2022-12-18T06:08:10;38.63;;;14.70;;
18265;SDS011;9259;48.194;16.322;2022-12-18T06:10:41;31.43;;;13.00;;
18265;SDS011;9259;48.194;16.322;2022-12-18T06:13:13;35.93;;;13.73;;
18265;SDS011;9259;48.194;16.322;2022-12-18T06:15:42;35.53;;;14.33;;
18265;SDS011;9259;48.194;16.322;2022-12-18T06:18:10;43.80;;;14.97;;
18265;SDS011;9259;48.194;16.322;2022-12-18T06:20:38;33.67;;;13.03;;
18265;SDS011;9259;48.194;16.322;2022-12-18T06:23:07;37.13;;;14.43;;
18265;SDS011;9259;48.194;16.322;2022-12-18T06:25:37;38.07;;;13.70;;
18265;SDS011;9259;48.194;16.322;2022-12-18T06:28:06;28.77;;;12.20;;
18265;SDS011;9259;48.194;16.322;2022-12-18T06:30:34;35.80;;;13.20;;
18265;SDS011;9259;48.194;16.322;2022-12-18T06:33:03;37.30;;;13.73;;
18265;SDS011;9259;48.194;16.322;2022-12-18T06:35:32;35.50;;;14.20;;
18265;SDS011;9259;48.194;16.322;2022-12-18T06:38:00;39.13;;;15.03;;
18265;SDS011;9259;48.194;16.322;2022-12-18T06:40:29;46.87;;;16.13;;
18265;SDS011;9259;48.194;16.322;2022-12-18T06:42:57;40.53;;;15.30;;
18265;SDS011;9259;48.194;16.322;2022-12-18T06:45:25;49.27;;;17.90;;
18265;SDS011;9259;48.194;16.322;2022-12-18T06:47:53;59.67;;;23.97;;
18265;SDS011;9259;48.194;16.322;2022-12-18T06:50:22;52.73;;;18.93;;
18265;SDS011;9259;48.194;16.322;2022-12-18T06:52:50;48.90;;;18.53;;
18265;SDS011;9259;48.194;16.322;2022-12-18T06:55:19;50.23;;;19.40;;
18265;SDS011;9259;48.194;16.322;2022-12-18T06:57:47;42.00;;;15.27;;
18265;SDS011;9259;48.194;16.322;2022-12-18T07:00:15;38.60;;;14.57;;
18265;SDS011;9259;48.194;16.322;2022-12-18T07:02:43;38.93;;;15.07;;
18265;SDS011;9259;48.194;16.322;2022-12-18T07:05:11;40.27;;;15.53;;
18265;SDS011;9259;48.194;16.322;2022-12-18T07:07:41;41.07;;;16.13;;
18265;SDS011;9259;48.194;16.322;2022-12-18T07:10:09;42.07;;;16.27;;
18265;SDS011;9259;48.194;16.322;2022-12-18T07:12:37;36.87;;;14.43;;
18265;SDS011;9259;48.194;16.322;2022-12-18T07:15:06;42.53;;;15.47;;
18265;SDS011;9259;48.194;16.322;2022-12-18T07:17:35;41.87;;;15.70;;
18265;SDS011;9259;48.194;16.322;2022-12-18T07:20:03;43.07;;;16.63;;
18265;SDS011;9259;48.194;16.322;2022-12-18T07:22:31;42.90;;;16.33;;
18265;SDS011;9259;48.194;16.322;2022-12-18T07:25:01;39.67;;;16.87;;
18265;SDS011;9259;48.194;16.322;2022-12-18T07:27:29;47.03;;;18.97;;
18265;SDS011;9259;48.194;16.322;2022-12-18T07:29:57;40.57;;;15.87;;
18265;SDS011;9259;48.194;16.322;2022-12-18T07:32:25;41.93;;;16.53;;
18265;SDS011;9259;48.194;16.322;2022-12-18T07:34:53;49.57;;;15.27;;
18265;SDS011;9259;48.194;16.322;2022-12-18T07:37:21;46.20;;;16.23;;
18265;SDS011;9259;48.194;16.322;2022-12-18T07:39:49;43.53;;;16.70;;
18265;SDS011;9259;48.194;16.322;2022-12-18T07:42:19;43.67;;;16.23;;
18265;SDS011;9259;48.194;16.322;2022-12-18T07:45:00;39.83;;;15.53;;
18265;SDS011;9259;48.194;16.322;2022-12-18T07:47:29;40.50;;;15.23;;
18265;SDS011;9259;48.194;16.322;2022-12-18T07:49:57;39.47;;;14.67;;
18265;SDS011;9259;48.194;16.322;2022-12-18T07:52:25;38.90;;;13.63;;
18265;SDS011;9259;48.194;16.322;2022-12-18T07:54:53;34.20;;;14.37;;
18265;SDS011;9259;48.194;16.322;2022-12-18T07:57:22;38.37;;;15.53;;
18265;SDS011;9259;48.194;16.322;2022-12-18T07:59:50;37.03;;;15.93;;
18265;SDS011;9259;48.194;16.322;2022-12-18T08:02:18;35.73;;;14.53;;
18265;SDS011;9259;48.194;16.322;2022-12-18T08:04:46;32.63;;;14.33;;
18265;SDS011;9259;48.194;16.322;2022-12-18T08:07:14;30.30;;;13.57;;
18265;SDS011;9259;48.194;16.322;2022-12-18T08:09:42;34.43;;;14.73;;
18265;SDS011;9259;48.194;16.322;2022-12-18T08:12:11;33.60;;;14.07;;
18265;SDS011;9259;48.194;16.322;2022-12-18T08:14:40;33.13;;;13.50;;
18265;SDS011;9259;48.194;16.322;2022-12-18T08:17:08;30.70;;;13.30;;
18265;SDS011;9259;48.194;16.322;2022-12-18T08:19:36;34.23;;;13.83;;
18265;SDS011;9259;48.194;16.322;2022-12-18T08:22:04;32.97;;;13.10;;
18265;SDS011;9259;48.194;16.322;2022-12-18T08:24:32;33.47;;;14.30;;
18265;SDS011;9259;48.194;16.322;2022-12-18T08:27:00;36.63;;;15.00;;
18265;SDS011;9259;48.194;16.322;2022-12-18T08:29:29;37.80;;;14.67;;
18265;SDS011;9259;48.194;16.322;2022-12-18T08:31:59;37.70;;;14.80;;
18265;SDS011;9259;48.194;16.322;2022-12-18T08:34:27;38.00;;;15.27;;
18265;SDS011;9259;48.194;16.322;2022-12-18T08:36:55;37.23;;;15.53;;
18265;SDS011;9259;48.194;16.322;2022-12-18T08:39:23;36.67;;;15.57;;
18265;SDS011;9259;48.194;16.322;2022-12-18T08:41:51;45.10;;;16.77;;
18265;SDS011;9259;48.194;16.322;2022-12-18T08:44:33;40.20;;;16.47;;
18265;SDS011;9259;48.194;16.322;2022-12-18T08:47:05;44.20;;;16.23;;
18265;SDS011;9259;48.194;16.322;2022-12-18T08:49:34;43.10;;;17.13;;
18265;SDS011;9259;48.194;16.322;2022-12-18T08:52:03;46.80;;;17.67;;
18265;SDS011;9259;48.194;16.322;2022-12-18T08:54:31;43.47;;;17.20;;
18265;SDS011;9259;48.194;16.322;2022-12-18T08:56:59;42.60;;;17.37;;
18265;SDS011;9259;48.194;16.322;2022-12-18T08:59:27;45.00;;;18.43;;
18265;SDS011;9259;48.194;16.322;2022-12-18T09:01:55;46.33;;;17.50;;
18265;SDS011;9259;48.194;16.322;2022-12-18T09:04:25;50.17;;;19.77;;
18265;SDS011;9259;48.194;16.322;2022-12-18T09:06:53;55.87;;;22.10;;
18265;SDS011;9259;48.194;16.322;2022-12-18T09:09:21;62.20;;;22.20;;
18265;SDS011;9259;48.194;16.322;2022-12-18T09:11:49;61.77;;;24.27;;
18265;SDS011;9259;48.194;16.322;2022-12-18T09:14:17;62.67;;;22.47;;
18265;SDS011;9259;48.194;16.322;2022-12-18T09:16:45;65.83;;;23.87;;
18265;SDS011;9259;48.194;16.322;2022-12-18T09:19:13;65.90;;;23.30;;
18265;SDS011;9259;48.194;16.322;2022-12-18T09:21:43;64.53;;;23.07;;
18265;SDS011;9259;48.194;16.322;2022-12-18T09:24:12;64.33;;;24.10;;
18265;SDS011;9259;48.194;16.322;2022-12-18T09:26:40;66.03;;;22.93;;
18265;SDS011;9259;48.194;16.322;2022-12-18T09:29:08;65.30;;;23.13;;
18265;SDS011;9259;48.194;16.322;2022-12-18T09:31:36;59.27;;;22.77;;
18265;SDS011;9259;48.194;16.322;2022-12-18T09:34:05;59.07;;;22.57;;
18265;SDS011;9259;48.194;16.322;2022-12-18T09:36:34;51.77;;;19.70;;
18265;SDS011;9259;48.194;16.322;2022-12-18T09:39:03;57.33;;;22.07;;
18265;SDS011;9259;48.194;16.322;2022-12-18T09:41:34;67.67;;;22.30;;
18265;SDS011;9259;48.194;16.322;2022-12-18T09:44:10;60.83;;;21.47;;
18265;SDS011;9259;48.194;16.322;2022-12-18T09:46:46;61.33;;;22.20;;
18265;SDS011;9259;48.194;16.322;2022-12-18T09:49:18;58.40;;;21.20;;
18265;SDS011;9259;48.194;16.322;2022-12-18T09:51:49;62.13;;;22.23;;
18265;SDS011;9259;48.194;16.322;2022-12-18T09:54:21;75.67;;;24.17;;
18265;SDS011;9259;48.194;16.322;2022-12-18T09:56:53;62.43;;;21.67;;
18265;SDS011;9259;48.194;16.322;2022-12-18T09:59:22;62.23;;;22.33;;
18265;SDS011;9259;48.194;16.322;2022-12-18T10:01:52;53.47;;;20.83;;
18265;SDS011;9259;48.194;16.322;2022-12-18T10:04:20;55.73;;;20.53;;
18265;SDS011;9259;48.194;16.322;2022-12-18T10:06:50;51.93;;;20.33;;
18265;SDS011;9259;48.194;16.322;2022-12-18T10:09:27;65.70;;;21.77;;
18265;SDS011;9259;48.194;16.322;2022-12-18T10:12:00;54.23;;;20.97;;
18265;SDS011;9259;48.194;16.322;2022-12-18T10:14:34;56.47;;;19.80;;
18265;SDS011;9259;48.194;16.322;2022-12-18T10:17:07;57.80;;;20.27;;
18265;SDS011;9259;48.194;16.322;2022-12-18T10:19:42;52.67;;;19.63;;
18265;SDS011;9259;48.194;16.322;2022-12-18T10:22:21;56.40;;;19.37;;
18265;SDS011;9259;48.194;16.322;2022-12-18T10:24:58;56.60;;;19.13;;
18265;SDS011;9259;48.194;16.322;2022-12-18T10:27:29;51.47;;;19.87;;
18265;SDS011;9259;48.194;16.322;2022-12-18T10:29:58;58.43;;;19.23;;
18265;SDS011;9259;48.194;16.322;2022-12-18T10:32:28;61.93;;;21.83;;
18265;SDS011;9259;48.194;16.322;2022-12-18T10:34:57;52.50;;;19.97;;
18265;SDS011;9259;48.194;16.322;2022-12-18T10:37:26;55.20;;;20.27;;
18265;SDS011;9259;48.194;16.322;2022-12-18T10:42:43;50.90;;;18.30;;
18265;SDS011;9259;48.194;16.322;2022-12-18T10:45:11;51.33;;;19.27;;
18265;SDS011;9259;48.194;16.322;2022-12-18T10:47:42;55.27;;;21.00;;
18265;SDS011;9259;48.194;16.322;2022-12-18T10:50:18;54.97;;;20.60;;
18265;SDS011;9259;48.194;16.322;2022-12-18T10:52:57;57.47;;;20.40;;
18265;SDS011;9259;48.194;16.322;2022-12-18T10:55:30;52.23;;;20.67;;
18265;SDS011;9259;48.194;16.322;2022-12-18T10:58:16;56.87;;;19.80;;
18265;SDS011;9259;48.194;16.322;2022-12-18T11:01:01;52.60;;;20.63;;
18265;SDS011;9259;48.194;16.322;2022-12-18T11:03:34;53.07;;;18.77;;
18265;SDS011;9259;48.194;16.322;2022-12-18T11:06:05;59.40;;;20.67;;
18265;SDS011;9259;48.194;16.322;2022-12-18T11:08:34;59.97;;;20.87;;
18265;SDS011;9259;48.194;16.322;2022-12-18T11:11:06;56.97;;;19.93;;
18265;SDS011;9259;48.194;16.322;2022-12-18T11:13:42;49.33;;;18.70;;
18265;SDS011;9259;48.194;16.322;2022-12-18T11:16:19;61.07;;;21.33;;
18265;SDS011;9259;48.194;16.322;2022-12-18T11:18:47;60.43;;;20.93;;
18265;SDS011;9259;48.194;16.322;2022-12-18T11:21:16;61.67;;;21.90;;
18265;SDS011;9259;48.194;16.322;2022-12-18T11:23:46;56.00;;;20.60;;
18265;SDS011;9259;48.194;16.322;2022-12-18T11:26:17;60.77;;;21.63;;
18265;SDS011;9259;48.194;16.322;2022-12-18T11:28:46;63.90;;;21.80;;
18265;SDS011;9259;48.194;16.322;2022-12-18T11:31:23;62.40;;;21.77;;
18265;SDS011;9259;48.194;16.322;2022-12-18T11:33:55;54.97;;;21.63;;
18265;SDS011;9259;48.194;16.322;2022-12-18T11:36:29;56.87;;;22.50;;
18265;SDS011;9259;48.194;16.322;2022-12-18T11:39:00;58.63;;;22.57;;
18265;SDS011;9259;48.194;16.322;2022-12-18T11:41:37;57.57;;;21.50;;
18265;SDS011;9259;48.194;16.322;2022-12-18T11:44:27;57.90;;;20.43;;
18265;SDS011;9259;48.194;16.322;2022-12-18T11:47:00;61.20;;;21.63;;
18265;SDS011;9259;48.194;16.322;2022-12-18T11:49:32;60.67;;;21.80;;
18265;SDS011;9259;48.194;16.322;2022-12-18T11:52:02;60.20;;;21.47;;
18265;SDS011;9259;48.194;16.322;2022-12-18T11:54:33;53.57;;;20.40;;
18265;SDS011;9259;48.194;16.322;2022-12-18T11:57:06;58.00;;;21.00;;
18265;SDS011;9259;48.194;16.322;2022-12-18T11:59:39;57.60;;;21.83;;
18265;SDS011;9259;48.194;16.322;2022-12-18T12:02:19;65.17;;;21.80;;
18265;SDS011;9259;48.194;16.322;2022-12-18T12:05:04;59.03;;;21.20;;
18265;SDS011;9259;48.194;16.322;2022-12-18T12:07:53;57.03;;;20.80;;
18265;SDS011;9259;48.194;16.322;2022-12-18T12:10:28;67.20;;;19.90;;
18265;SDS011;9259;48.194;16.322;2022-12-18T12:13:10;55.80;;;20.53;;
18265;SDS011;9259;48.194;16.322;2022-12-18T12:15:46;53.90;;;19.17;;
18265;SDS011;9259;48.194;16.322;2022-12-18T12:18:21;60.07;;;21.03;;
18265;SDS011;9259;48.194;16.322;2022-12-18T12:20:53;61.00;;;21.00;;
18265;SDS011;9259;48.194;16.322;2022-12-18T12:23:28;56.10;;;20.53;;
18265;SDS011;9259;48.194;16.322;2022-12-18T12:26:02;63.17;;;21.10;;
18265;SDS011;9259;48.194;16.322;2022-12-18T12:28:42;57.67;;;21.57;;
18265;SDS011;9259;48.194;16.322;2022-12-18T12:31:19;53.10;;;19.90;;
18265;SDS011;9259;48.194;16.322;2022-12-18T12:33:56;62.83;;;20.43;;
18265;SDS011;9259;48.194;16.322;2022-12-18T12:36:30;52.80;;;19.90;;
18265;SDS011;9259;48.194;16.322;2022-12-18T12:39:04;48.13;;;18.63;;
18265;SDS011;9259;48.194;16.322;2022-12-18T12:41:35;58.50;;;20.80;;
18265;SDS011;9259;48.194;16.322;2022-12-18T12:44:35;62.80;;;20.77;;
18265;SDS011;9259;48.194;16.322;2022-12-18T12:47:08;60.40;;;21.50;;
18265;SDS011;9259;48.194;16.322;2022-12-18T12:49:40;65.33;;;23.77;;
18265;SDS011;9259;48.194;16.322;2022-12-18T12:52:14;62.37;;;22.20;;
18265;SDS011;9259;48.194;16.322;2022-12-18T12:54:43;58.23;;;20.10;;
18265;SDS011;9259;48.194;16.322;2022-12-18T12:57:12;54.37;;;19.70;;
18265;SDS011;9259;48.194;16.322;2022-12-18T12:59:46;61.07;;;22.97;;
18265;SDS011;9259;48.194;16.322;2022-12-18T13:02:21;55.93;;;20.93;;
18265;SDS011;9259;48.194;16.322;2022-12-18T13:04:52;58.03;;;20.33;;
18265;SDS011;9259;48.194;16.322;2022-12-18T13:07:26;55.33;;;20.43;;
18265;SDS011;9259;48.194;16.322;2022-12-18T13:10:13;60.13;;;20.83;;
18265;SDS011;9259;48.194;16.322;2022-12-18T13:12:51;60.40;;;21.17;;
18265;SDS011;9259;48.194;16.322;2022-12-18T13:15:24;63.30;;;20.77;;
18265;SDS011;9259;48.194;16.322;2022-12-18T13:18:05;62.20;;;22.73;;
18265;SDS011;9259;48.194;16.322;2022-12-18T13:21:01;64.67;;;22.53;;
18265;SDS011;9259;48.194;16.322;2022-12-18T13:23:32;70.07;;;23.63;;
18265;SDS011;9259;48.194;16.322;2022-12-18T13:29:00;68.10;;;22.50;;
18265;SDS011;9259;48.194;16.322;2022-12-18T13:34:36;61.80;;;20.93;;
18265;SDS011;9259;48.194;16.322;2022-12-18T13:46:25;74.97;;;24.37;;
18265;SDS011;9259;48.194;16.322;2022-12-18T13:48:57;62.20;;;23.03;;
18265;SDS011;9259;48.194;16.322;2022-12-18T13:51:28;66.87;;;25.30;;
18265;SDS011;9259;48.194;16.322;2022-12-18T13:53:59;68.20;;;25.23;;
18265;SDS011;9259;48.194;16.322;2022-12-18T13:56:32;73.37;;;24.37;;
18265;SDS011;9259;48.194;16.322;2022-12-18T13:59:17;66.53;;;23.53;;
18265;SDS011;9259;48.194;16.322;2022-12-18T14:01:47;68.67;;;23.63;;
18265;SDS011;9259;48.194;16.322;2022-12-18T14:04:19;75.53;;;24.30;;
18265;SDS011;9259;48.194;16.322;2022-12-18T14:06:54;68.70;;;23.73;;
18265;SDS011;9259;48.194;16.322;2022-12-18T14:09:26;69.90;;;24.80;;
18265;SDS011;9259;48.194;16.322;2022-12-18T14:12:11;63.60;;;23.90;;
18265;SDS011;9259;48.194;16.322;2022-12-18T14:15:02;68.10;;;25.53;;
18265;SDS011;9259;48.194;16.322;2022-12-18T14:17:35;70.93;;;24.57;;
18265;SDS011;9259;48.194;16.322;2022-12-18T14:20:04;68.87;;;26.17;;
18265;SDS011;9259;48.194;16.322;2022-12-18T14:22:44;76.57;;;26.77;;
18265;SDS011;9259;48.194;16.322;2022-12-18T14:25:22;78.50;;;26.73;;
18265;SDS011;9259;48.194;16.322;2022-12-18T14:27:52;81.33;;;29.07;;
18265;SDS011;9259;48.194;16.322;2022-12-18T14:30:40;75.83;;;26.73;;
18265;SDS011;9259;48.194;16.322;2022-12-18T14:33:09;79.50;;;28.10;;
18265;SDS011;9259;48.194;16.322;2022-12-18T14:35:39;69.77;;;25.73;;
18265;SDS011;9259;48.194;16.322;2022-12-18T14:38:20;68.97;;;23.53;;
18265;SDS011;9259;48.194;16.322;2022-12-18T14:40:54;76.73;;;25.27;;
18265;SDS011;9259;48.194;16.322;2022-12-18T14:43:24;75.70;;;25.87;;
18265;SDS011;9259;48.194;16.322;2022-12-18T14:45:54;71.03;;;25.67;;
18265;SDS011;9259;48.194;16.322;2022-12-18T14:48:25;72.30;;;27.07;;
18265;SDS011;9259;48.194;16.322;2022-12-18T14:51:02;77.03;;;27.03;;
18265;SDS011;9259;48.194;16.322;2022-12-18T14:53:34;85.57;;;28.40;;
18265;SDS011;9259;48.194;16.322;2022-12-18T14:56:12;84.60;;;28.93;;
18265;SDS011;9259;48.194;16.322;2022-12-18T14:58:46;86.30;;;27.70;;
18265;SDS011;9259;48.194;16.322;2022-12-18T15:01:19;82.37;;;27.43;;
18265;SDS011;9259;48.194;16.322;2022-12-18T15:03:53;83.90;;;26.73;;
18265;SDS011;9259;48.194;16.322;2022-12-18T15:06:24;93.53;;;28.50;;